Time;durP1;ratioP1;P1;durP2;ratioP2;P2;SDS_P1;SDS_P2;PMS_P1;PMS_P2;Temp;Humidity;BMP_temperature;BMP_pressure;BME280_temperature;BME280_humidity;BME280_pressure;Samples;Min_cycle;Max_cycle;Signal;HPM_P1;HPM_P2
2022/07/17 00:01:48;;;;;;;7.93;4.32;;;28.90;69.80;;;;;;5036620;28;20091;-73
2022/07/17 00:04:14;;;;;;;6.65;3.53;;;28.90;69.90;;;;;;5018747;28;20152;-72
2022/07/17 00:06:40;;;;;;;9.18;3.90;;;28.90;70.00;;;;;;5036483;28;20033;-73
2022/07/17 00:09:06;;;;;;;7.32;4.10;;;28.90;70.50;;;;;;5018824;28;20363;-73
2022/07/17 00:11:33;;;;;;;5.25;3.90;;;28.80;70.70;;;;;;5036243;28;20029;-72
2022/07/17 00:13:58;;;;;;;8.80;3.95;;;28.80;71.20;;;;;;5018631;28;20033;-73
2022/07/17 00:16:24;;;;;;;7.00;4.25;;;28.80;71.50;;;;;;5035835;28;20021;-72
2022/07/17 00:18:50;;;;;;;7.13;3.90;;;28.70;71.90;;;;;;5036196;28;20029;-73
2022/07/17 00:21:17;;;;;;;6.25;4.00;;;28.70;72.20;;;;;;5018313;28;20109;-72
2022/07/17 00:23:43;;;;;;;7.45;4.22;;;28.60;72.30;;;;;;5036237;28;20021;-72
2022/07/17 00:26:09;;;;;;;6.63;4.10;;;28.60;72.70;;;;;;5036125;28;20029;-72
2022/07/17 00:28:35;;;;;;;9.82;4.60;;;28.60;72.70;;;;;;5018065;28;20057;-72
2022/07/17 00:31:00;;;;;;;10.45;5.10;;;28.50;73.00;;;;;;5035950;28;20126;-73
2022/07/17 00:33:26;;;;;;;9.50;4.85;;;28.50;73.10;;;;;;5035937;28;20033;-72
2022/07/17 00:35:52;;;;;;;7.60;5.00;;;28.50;73.30;;;;;;5035621;28;20037;-74
2022/07/17 00:38:17;;;;;;;6.60;5.32;;;28.50;73.40;;;;;;5036058;28;20025;-73
2022/07/17 00:40:45;;;;;;;8.38;5.53;;;28.50;73.60;;;;;;5035811;28;20057;-74
2022/07/17 00:43:12;;;;;;;8.43;5.40;;;28.40;73.90;;;;;;5035949;28;20025;-73
2022/07/17 00:45:37;;;;;;;9.20;6.18;;;28.40;73.70;;;;;;5034301;28;20026;-72
2022/07/17 00:48:07;;;;;;;7.70;5.43;;;28.40;73.60;;;;;;5035375;28;20064;-71
2022/07/17 00:50:42;;;;;;;8.20;5.50;;;28.40;72.80;;;;;;5035563;28;20079;-72
2022/07/17 00:53:10;;;;;;;13.13;6.68;;;28.40;72.70;;;;;;5035474;28;20030;-73
2022/07/17 00:55:36;;;;;;;13.32;6.35;;;28.30;69.40;;;;;;5035451;28;20026;-74
2022/07/17 00:58:04;;;;;;;11.50;6.95;;;28.20;66.80;;;;;;5017417;28;20037;-72
2022/07/17 01:00:30;;;;;;;12.00;6.60;;;28.20;65.10;;;;;;5035078;28;20505;-72
2022/07/17 01:02:57;;;;;;;12.90;6.75;;;28.10;64.10;;;;;;5035108;28;20017;-74
2022/07/17 01:05:23;;;;;;;17.27;6.68;;;28.10;63.20;;;;;;5035231;28;20056;-72
2022/07/17 01:07:50;;;;;;;17.85;6.35;;;28.00;62.20;;;;;;5035395;28;20028;-73
2022/07/17 01:10:16;;;;;;;12.68;5.88;;;28.00;61.80;;;;;;5035618;28;20030;-72
2022/07/17 01:12:44;;;;;;;12.75;5.20;;;28.00;62.20;;;;;;5017487;28;20388;-72
2022/07/17 01:15:11;;;;;;;18.63;5.32;;;28.00;61.10;;;;;;5035046;28;20026;-74
2022/07/17 01:17:37;;;;;;;14.75;4.72;;;27.90;60.50;;;;;;5034853;28;20045;-72
2022/07/17 01:20:05;;;;;;;11.02;4.82;;;27.90;60.00;;;;;;5035296;28;20096;-73
2022/07/17 01:22:31;;;;;;;10.00;4.45;;;27.90;59.80;;;;;;5035001;28;20501;-75
2022/07/17 01:24:57;;;;;;;10.52;4.85;;;27.90;59.70;;;;;;5034908;28;20021;-72
2022/07/17 01:27:22;;;;;;;10.40;3.97;;;27.90;59.60;;;;;;5017088;28;20490;-72
2022/07/17 01:29:48;;;;;;;8.90;4.65;;;27.80;59.40;;;;;;5034811;28;20031;-73
2022/07/17 01:32:14;;;;;;;12.52;4.43;;;27.70;59.30;;;;;;5016716;28;20120;-72
2022/07/17 01:34:40;;;;;;;7.10;4.10;;;27.70;59.20;;;;;;5034989;28;20508;-73
2022/07/17 01:37:05;;;;;;;10.15;4.40;;;27.70;59.30;;;;;;5020283;28;20028;-73
2022/07/17 01:42:15;;;;;;;9.43;4.47;;;27.70;58.80;;;;;;5048641;28;20446;-71
2022/07/17 01:44:41;;;;;;;9.80;4.50;;;27.80;59.00;;;;;;5016757;28;20030;-74
2022/07/17 01:47:07;;;;;;;8.98;4.07;;;27.80;58.70;;;;;;5034591;28;20482;-73
2022/07/17 01:49:32;;;;;;;9.88;4.85;;;27.80;58.50;;;;;;5016563;28;20025;-71
2022/07/17 01:51:59;;;;;;;9.52;4.50;;;27.80;58.30;;;;;;5034568;28;20402;-71
2022/07/17 01:54:27;;;;;;;8.65;4.10;;;27.80;58.40;;;;;;5034262;28;20029;-74
2022/07/17 01:56:53;;;;;;;8.52;3.90;;;27.80;58.30;;;;;;5016301;28;20036;-73
2022/07/17 01:59:18;;;;;;;9.93;3.67;;;27.80;57.90;;;;;;5034370;28;20049;-72
2022/07/17 02:01:44;;;;;;;7.85;3.67;;;27.80;57.50;;;;;;5034064;28;20459;-73
2022/07/17 02:04:10;;;;;;;6.70;3.50;;;27.80;57.30;;;;;;5016446;28;20026;-71
2022/07/17 02:06:35;;;;;;;12.48;4.00;;;27.80;57.40;;;;;;5016535;28;20477;-73
2022/07/17 02:09:01;;;;;;;10.75;3.75;;;27.80;57.20;;;;;;5034109;28;20097;-73
2022/07/17 02:11:27;;;;;;;9.80;3.60;;;27.80;57.20;;;;;;5034141;28;20025;-73
2022/07/17 02:13:53;;;;;;;9.63;3.42;;;27.70;57.20;;;;;;5033970;28;20533;-73
2022/07/17 02:16:18;;;;;;;8.38;3.60;;;27.70;57.20;;;;;;5033918;28;20072;-72
2022/07/17 02:18:44;;;;;;;9.43;3.85;;;27.70;57.20;;;;;;5034027;28;20021;-73
2022/07/17 02:21:10;;;;;;;8.75;3.85;;;27.70;57.20;;;;;;5033903;28;20387;-73
2022/07/17 02:23:36;;;;;;;10.35;3.88;;;27.70;57.00;;;;;;5033869;28;20049;-72
2022/07/17 02:26:02;;;;;;;10.60;4.05;;;27.70;56.90;;;;;;5015721;28;20505;-71
2022/07/17 02:28:28;;;;;;;9.70;3.45;;;27.70;56.70;;;;;;5033666;28;20516;-72
2022/07/17 02:30:55;;;;;;;9.80;4.25;;;27.70;56.60;;;;;;5034239;28;20025;-71
2022/07/17 02:33:21;;;;;;;9.05;3.90;;;27.60;56.30;;;;;;5033960;28;20061;-74
2022/07/17 02:35:46;;;;;;;6.60;3.67;;;27.60;56.20;;;;;;5033396;28;20480;-73
2022/07/17 02:38:12;;;;;;;8.70;3.70;;;27.60;56.10;;;;;;5033876;28;20036;-74
2022/07/17 02:40:38;;;;;;;8.73;3.35;;;27.50;55.90;;;;;;5015818;28;20018;-74
2022/07/17 02:43:03;;;;;;;8.63;3.67;;;27.50;55.90;;;;;;5033500;28;20467;-73
2022/07/17 02:45:29;;;;;;;10.45;3.65;;;27.50;55.90;;;;;;5033693;28;20112;-72
2022/07/17 02:47:55;;;;;;;7.97;3.85;;;27.40;55.70;;;;;;5033493;28;20032;-72
2022/07/17 02:50:21;;;;;;;8.32;3.53;;;27.30;55.40;;;;;;5033611;28;20071;-72
2022/07/17 02:52:51;;;;;;;8.07;3.55;;;27.30;55.50;;;;;;5033341;28;20033;-71
2022/07/17 02:55:18;;;;;;;8.10;3.42;;;27.30;55.10;;;;;;5033266;28;20017;-74
2022/07/17 02:57:46;;;;;;;6.18;3.28;;;27.30;55.30;;;;;;5033352;28;20033;-73
2022/07/17 03:00:15;;;;;;;5.32;3.15;;;27.30;55.20;;;;;;5033381;28;20064;-74
2022/07/17 03:02:42;;;;;;;8.70;3.50;;;27.30;54.70;;;;;;5033406;28;20021;-71
2022/07/17 03:05:08;;;;;;;11.38;3.92;;;27.30;54.90;;;;;;5033172;28;20029;-71
2022/07/17 03:07:34;;;;;;;6.32;3.90;;;27.30;54.70;;;;;;5033205;28;20014;-71
2022/07/17 03:10:01;;;;;;;6.35;3.35;;;27.20;54.90;;;;;;5033339;28;20033;-72
2022/07/17 03:12:26;;;;;;;5.95;3.25;;;27.20;54.80;;;;;;5033492;28;20017;-74
2022/07/17 03:14:52;;;;;;;5.18;3.38;;;27.20;54.70;;;;;;5033100;28;20037;-73
2022/07/17 03:17:18;;;;;;;8.00;3.55;;;27.20;54.40;;;;;;5033382;28;20021;-72
2022/07/17 03:19:43;;;;;;;9.52;3.35;;;27.10;54.50;;;;;;5033035;28;20022;-73
2022/07/17 03:22:09;;;;;;;7.13;3.40;;;27.10;54.70;;;;;;5033282;28;20486;-72
2022/07/17 03:24:35;;;;;;;7.13;3.55;;;27.00;54.60;;;;;;5033054;28;20041;-73
2022/07/17 03:27:01;;;;;;;6.68;3.20;;;27.00;54.80;;;;;;5032962;28;20018;-73
2022/07/17 03:29:26;;;;;;;6.90;3.33;;;27.00;54.60;;;;;;5032852;28;20083;-74
2022/07/17 03:31:52;;;;;;;7.63;3.30;;;27.10;54.80;;;;;;5032863;28;20037;-75
2022/07/17 03:34:18;;;;;;;7.18;3.42;;;27.10;54.60;;;;;;5032930;28;20045;-72
2022/07/17 03:36:43;;;;;;;5.88;3.42;;;27.10;54.70;;;;;;5032732;28;20488;-73
2022/07/17 03:39:09;;;;;;;6.80;3.97;;;27.00;54.40;;;;;;5032600;28;20029;-74
2022/07/17 03:41:35;;;;;;;7.90;3.42;;;27.00;54.40;;;;;;5032814;28;20021;-73
2022/07/17 03:44:01;;;;;;;5.82;3.08;;;27.00;54.40;;;;;;5015041;28;20032;-73
2022/07/17 03:46:27;;;;;;;6.30;3.53;;;27.00;54.40;;;;;;5032657;28;20029;-72
2022/07/17 03:48:52;;;;;;;9.13;3.72;;;26.90;54.50;;;;;;5032908;28;20068;-73
2022/07/17 03:51:18;;;;;;;5.55;3.42;;;26.90;54.50;;;;;;5032963;28;20025;-72
2022/07/17 03:53:44;;;;;;;8.80;3.80;;;26.90;54.60;;;;;;5032848;28;20111;-73
2022/07/17 03:56:10;;;;;;;6.63;3.55;;;26.90;54.60;;;;;;5055849;23;20056;-75
2022/07/17 03:58:36;;;;;;;7.22;4.32;;;26.80;54.90;;;;;;5052388;28;20025;-74
2022/07/17 04:01:03;;;;;;;8.05;3.55;;;26.80;54.90;;;;;;5051285;28;20056;-74
2022/07/17 04:03:28;;;;;;;5.82;3.70;;;26.80;55.30;;;;;;5052543;28;20100;-75
2022/07/17 04:05:54;;;;;;;10.35;3.58;;;26.80;55.20;;;;;;5052286;28;20151;-74
2022/07/17 04:08:20;;;;;;;7.60;3.70;;;26.80;55.60;;;;;;5052684;28;20108;-74
2022/07/17 04:10:46;;;;;;;9.00;3.88;;;26.80;54.90;;;;;;5052431;28;20025;-74
2022/07/17 04:13:11;;;;;;;10.85;3.97;;;26.80;55.00;;;;;;5052495;28;20037;-75
2022/07/17 04:15:49;;;;;;;6.18;3.90;;;26.80;55.10;;;;;;5052434;28;20028;-73
2022/07/17 04:18:22;;;;;;;8.75;3.53;;;26.80;54.60;;;;;;5052319;28;20028;-75
2022/07/17 04:20:48;;;;;;;6.43;3.85;;;26.80;54.60;;;;;;5054194;28;20021;-74
2022/07/17 04:23:15;;;;;;;12.43;3.90;;;26.80;55.20;;;;;;5056679;28;20029;-75
2022/07/17 04:25:41;;;;;;;6.72;3.30;;;26.70;55.50;;;;;;5056271;28;20032;-74
2022/07/17 04:28:08;;;;;;;6.88;3.60;;;26.70;55.60;;;;;;5056045;28;20025;-75
2022/07/17 04:30:34;;;;;;;5.55;3.40;;;26.70;55.60;;;;;;5055809;28;20478;-71
2022/07/17 04:32:59;;;;;;;7.82;3.40;;;26.70;55.80;;;;;;5055433;28;20032;-73
2022/07/17 04:35:25;;;;;;;8.93;3.80;;;26.70;55.90;;;;;;5055545;28;20036;-73
2022/07/17 04:37:51;;;;;;;7.43;3.55;;;26.70;55.90;;;;;;5055524;28;20013;-73
2022/07/17 04:40:17;;;;;;;5.65;3.42;;;26.80;55.80;;;;;;5055687;28;20481;-76
2022/07/17 04:42:43;;;;;;;8.55;3.95;;;26.80;56.00;;;;;;5055523;28;20017;-74
2022/07/17 04:45:09;;;;;;;7.55;3.70;;;26.90;55.90;;;;;;5055262;28;20412;-72
2022/07/17 04:47:35;;;;;;;6.28;3.45;;;26.90;55.60;;;;;;5055564;28;20509;-74
2022/07/17 04:50:01;;;;;;;8.30;3.58;;;26.90;55.90;;;;;;5055400;28;20021;-75
2022/07/17 04:52:27;;;;;;;8.60;3.60;;;26.90;56.00;;;;;;5055474;28;20370;-73
2022/07/17 04:54:53;;;;;;;7.75;3.80;;;26.90;55.90;;;;;;5055367;28;20029;-72
2022/07/17 04:57:18;;;;;;;9.00;3.50;;;26.90;55.90;;;;;;5055186;28;20052;-75
2022/07/17 04:59:44;;;;;;;9.43;3.80;;;26.90;55.90;;;;;;5055087;28;20021;-75
2022/07/17 05:02:10;;;;;;;7.28;4.00;;;26.90;55.90;;;;;;5055358;28;20040;-72
2022/07/17 05:04:36;;;;;;;10.05;4.25;;;27.00;55.80;;;;;;5055476;28;20025;-76
2022/07/17 05:07:02;;;;;;;10.20;3.95;;;27.00;55.70;;;;;;5056262;28;20024;-73
2022/07/17 05:09:27;;;;;;;9.45;4.10;;;27.00;55.40;;;;;;5055791;28;20488;-76
2022/07/17 05:11:53;;;;;;;9.80;3.60;;;27.00;55.30;;;;;;5055626;28;20025;-75
2022/07/17 05:14:19;;;;;;;10.77;3.90;;;27.00;55.40;;;;;;5055064;28;20033;-72
2022/07/17 05:16:44;;;;;;;7.82;3.42;;;27.00;55.70;;;;;;5054895;28;20021;-75
2022/07/17 05:19:10;;;;;;;7.00;3.70;;;27.00;55.50;;;;;;5054859;28;20458;-75
2022/07/17 05:21:36;;;;;;;10.82;4.03;;;27.00;55.30;;;;;;5056440;28;20100;-76
2022/07/17 05:24:02;;;;;;;7.20;3.60;;;27.20;55.30;;;;;;5055383;28;20021;-76
2022/07/17 05:26:27;;;;;;;6.25;3.13;;;27.40;54.50;;;;;;5054622;28;20154;-75
2022/07/17 05:28:53;;;;;;;5.57;3.05;;;27.70;54.10;;;;;;5055027;28;20027;-74
2022/07/17 05:31:19;;;;;;;8.00;4.03;;;27.90;53.50;;;;;;5054241;28;20025;-75
2022/07/17 05:33:45;;;;;;;6.55;2.95;;;28.30;52.60;;;;;;5054636;28;20112;-75
2022/07/17 05:36:10;;;;;;;6.18;3.88;;;28.60;51.90;;;;;;5053190;28;20025;-75
2022/07/17 05:38:37;;;;;;;7.60;3.38;;;28.90;51.40;;;;;;5054637;28;20025;-75
2022/07/17 05:41:03;;;;;;;7.35;3.45;;;29.20;50.70;;;;;;5054687;28;20516;-72
2022/07/17 05:43:29;;;;;;;5.72;3.03;;;29.50;50.10;;;;;;5054185;28;20100;-74
2022/07/17 05:45:58;;;;;;;5.65;3.35;;;29.80;49.30;;;;;;5055053;28;20458;-74
2022/07/17 05:48:25;;;;;;;7.68;3.08;;;30.00;49.10;;;;;;5055020;28;20067;-75
2022/07/17 05:50:51;;;;;;;6.63;3.13;;;30.20;48.70;;;;;;5053393;28;20466;-75
2022/07/17 05:53:17;;;;;;;8.82;3.47;;;30.50;47.80;;;;;;5054148;28;20128;-73
2022/07/17 05:55:43;;;;;;;6.50;3.17;;;30.80;47.20;;;;;;5053750;28;20061;-74
2022/07/17 05:58:10;;;;;;;8.18;4.03;;;31.10;47.10;;;;;;5053995;28;20056;-74
2022/07/17 06:00:36;;;;;;;9.77;5.28;;;31.30;46.70;;;;;;5052904;28;20374;-74
2022/07/17 06:03:02;;;;;;;6.68;2.97;;;31.60;46.50;;;;;;5053993;28;20510;-73
2022/07/17 06:05:27;;;;;;;9.05;3.83;;;31.70;45.90;;;;;;5054182;28;20025;-72
2022/07/17 06:07:55;;;;;;;7.93;3.47;;;31.90;45.70;;;;;;5053820;28;20029;-72
2022/07/17 06:10:20;;;;;;;5.60;3.20;;;32.00;45.30;;;;;;5052695;28;20473;-72
2022/07/17 06:12:46;;;;;;;8.00;3.25;;;32.20;45.10;;;;;;5054002;28;20044;-72
2022/07/17 06:15:12;;;;;;;9.82;3.05;;;32.30;45.30;;;;;;5053879;28;20017;-74
2022/07/17 06:17:38;;;;;;;6.20;3.20;;;32.60;44.70;;;;;;5055991;28;20025;-75
2022/07/17 06:20:04;;;;;;;6.63;3.20;;;32.60;44.10;;;;;;5054421;28;20352;-74
2022/07/17 06:22:30;;;;;;;8.32;3.40;;;32.70;43.80;;;;;;5053665;28;20070;-72
2022/07/17 06:24:56;;;;;;;5.63;3.10;;;32.80;43.70;;;;;;5053590;28;20104;-74
2022/07/17 06:27:23;;;;;;;7.43;3.58;;;32.80;44.00;;;;;;5053812;28;20017;-73
2022/07/17 06:29:49;;;;;;;6.22;3.65;;;33.00;43.60;;;;;;5053415;28;20036;-72
2022/07/17 06:32:15;;;;;;;6.78;3.15;;;33.30;43.20;;;;;;5053907;28;20363;-72
2022/07/17 06:34:41;;;;;;;6.25;3.10;;;33.50;42.70;;;;;;5056259;28;20028;-75
2022/07/17 06:37:07;;;;;;;8.93;2.97;;;33.50;42.30;;;;;;5055088;28;20025;-73
2022/07/17 06:39:33;;;;;;;10.90;3.00;;;33.60;42.10;;;;;;5053484;28;20048;-74
2022/07/17 06:41:59;;;;;;;5.53;3.33;;;33.60;42.00;;;;;;5053721;28;20474;-74
2022/07/17 06:44:25;;;;;;;8.02;3.40;;;33.80;41.60;;;;;;5052738;28;20084;-72
2022/07/17 06:46:50;;;;;;;6.72;3.08;;;33.90;41.60;;;;;;5053036;28;20409;-72
2022/07/17 06:49:16;;;;;;;10.63;3.50;;;34.10;41.40;;;;;;5053156;28;20064;-73
2022/07/17 06:51:45;;;;;;;7.10;4.13;;;34.20;41.30;;;;;;5053247;28;20037;-74
2022/07/17 06:54:12;;;;;;;8.20;3.83;;;34.30;41.20;;;;;;5052815;28;20402;-74
2022/07/17 06:56:38;;;;;;;5.55;3.15;;;34.30;40.70;;;;;;5052900;28;20057;-72
2022/07/17 06:59:06;;;;;;;7.50;3.75;;;34.30;40.60;;;;;;5053329;28;20025;-73
2022/07/17 07:01:36;;;;;;;8.80;3.13;;;34.40;40.80;;;;;;5053052;28;20036;-75
2022/07/17 07:04:03;;;;;;;8.70;2.95;;;34.50;40.80;;;;;;5051667;28;20043;-74
2022/07/17 07:06:29;;;;;;;9.75;3.17;;;34.50;40.40;;;;;;5052782;28;20100;-74
2022/07/17 07:08:55;;;;;;;5.70;2.90;;;34.60;40.70;;;;;;5052929;28;20316;-73
2022/07/17 07:11:21;;;;;;;5.85;3.22;;;34.70;40.20;;;;;;5051485;28;20559;-72
2022/07/17 07:13:47;;;;;;;7.45;2.92;;;34.70;40.20;;;;;;5051341;28;20048;-73
2022/07/17 07:16:13;;;;;;;5.70;2.70;;;34.60;40.00;;;;;;5051289;28;20025;-73
2022/07/17 07:18:39;;;;;;;6.25;2.92;;;34.70;40.30;;;;;;5052779;28;20116;-73
2022/07/17 07:21:04;;;;;;;7.38;3.30;;;34.80;40.00;;;;;;5052690;28;20022;-72
2022/07/17 07:23:30;;;;;;;4.40;3.00;;;34.80;39.40;;;;;;5052447;28;20086;-73
2022/07/17 07:25:56;;;;;;;7.43;2.92;;;34.70;39.30;;;;;;5052343;28;20017;-73
2022/07/17 07:28:22;;;;;;;6.63;3.03;;;34.70;39.50;;;;;;5052675;28;20107;-75
2022/07/17 07:30:48;;;;;;;7.45;2.95;;;34.60;39.10;;;;;;5052640;28;20550;-74
2022/07/17 07:33:13;;;;;;;5.38;3.45;;;34.50;39.40;;;;;;5052410;28;20413;-75
2022/07/17 07:35:39;;;;;;;7.00;2.90;;;34.50;39.10;;;;;;5052420;28;20052;-73
2022/07/17 07:38:05;;;;;;;5.70;2.90;;;34.50;39.10;;;;;;5052528;28;20059;-72
2022/07/17 07:40:31;;;;;;;8.27;2.92;;;34.40;38.90;;;;;;5052946;28;20059;-72
2022/07/17 07:42:57;;;;;;;7.38;2.80;;;34.20;39.30;;;;;;5053354;28;20489;-73
2022/07/17 07:45:23;;;;;;;6.63;3.30;;;34.30;39.00;;;;;;5050783;28;20482;-72
2022/07/17 07:47:50;;;;;;;4.57;2.63;;;34.20;38.80;;;;;;5052462;28;20025;-73
2022/07/17 07:50:17;;;;;;;7.30;2.92;;;34.30;38.80;;;;;;5051016;28;20025;-73
2022/07/17 07:52:45;;;;;;;8.23;2.95;;;34.30;38.60;;;;;;5052427;28;20048;-73
2022/07/17 07:55:11;;;;;;;7.15;2.95;;;34.20;39.70;;;;;;5053174;28;20470;-72
2022/07/17 07:57:37;;;;;;;5.22;2.90;;;34.30;38.80;;;;;;5056432;28;20513;-72
2022/07/17 08:00:05;;;;;;;7.60;2.75;;;34.30;38.50;;;;;;5056246;28;20021;-73
2022/07/17 08:02:31;;;;;;;5.00;2.92;;;34.30;38.30;;;;;;5055970;28;20119;-75
2022/07/17 08:04:57;;;;;;;8.25;3.20;;;34.30;38.40;;;;;;5055792;28;20041;-73
2022/07/17 08:07:24;;;;;;;5.35;2.65;;;34.30;38.10;;;;;;5056382;28;20428;-77
2022/07/17 08:09:50;;;;;;;7.15;3.17;;;34.30;37.90;;;;;;5056366;28;20100;-76
2022/07/17 08:12:16;;;;;;;6.05;2.95;;;34.20;38.00;;;;;;5055948;28;20056;-72
2022/07/17 08:14:41;;;;;;;6.32;2.90;;;34.20;38.20;;;;;;5055661;28;20071;-73
2022/07/17 08:17:07;;;;;;;4.35;2.90;;;34.20;38.00;;;;;;5055907;28;20430;-73
2022/07/17 08:19:33;;;;;;;5.53;2.80;;;34.30;38.10;;;;;;5055889;28;20067;-73
2022/07/17 08:21:59;;;;;;;5.90;3.10;;;34.20;38.10;;;;;;5056896;28;20025;-73
2022/07/17 08:24:24;;;;;;;5.03;2.70;;;34.20;38.20;;;;;;5056467;28;20493;-74
2022/07/17 08:26:50;;;;;;;8.93;2.60;;;34.20;38.20;;;;;;5056051;28;20036;-74
2022/07/17 08:29:15;;;;;;;5.72;2.65;;;34.10;38.30;;;;;;5055605;28;20040;-74
2022/07/17 08:31:41;;;;;;;5.28;2.70;;;34.00;38.10;;;;;;5055494;28;20057;-73
2022/07/17 08:34:07;;;;;;;7.03;3.10;;;34.00;38.30;;;;;;5054113;28;20130;-73
2022/07/17 08:36:33;;;;;;;5.45;2.70;;;33.90;38.10;;;;;;5055096;28;20025;-74
2022/07/17 08:38:59;;;;;;;6.93;2.83;;;33.90;38.30;;;;;;5055291;28;20434;-73
2022/07/17 08:41:26;;;;;;;4.88;2.65;;;33.80;38.40;;;;;;5055703;28;20029;-76
2022/07/17 08:43:54;;;;;;;7.60;2.70;;;33.60;38.10;;;;;;5055220;28;20420;-75
2022/07/17 08:46:27;;;;;;;5.53;2.90;;;33.40;37.90;;;;;;5055036;28;20031;-73
2022/07/17 08:48:58;;;;;;;7.93;2.95;;;33.40;39.30;;;;;;5055163;28;20461;-76
2022/07/17 08:51:26;;;;;;;8.05;2.75;;;33.40;38.30;;;;;;5055091;28;20025;-75
2022/07/17 08:53:53;;;;;;;4.43;2.63;;;33.40;38.20;;;;;;5055044;28;20055;-75
2022/07/17 08:56:19;;;;;;;4.28;2.63;;;33.30;38.30;;;;;;5054662;28;20517;-71
2022/07/17 08:58:45;;;;;;;7.47;2.78;;;33.30;38.40;;;;;;5054886;28;20025;-75
2022/07/17 09:01:11;;;;;;;4.60;2.72;;;33.30;37.70;;;;;;5054992;28;20025;-73
2022/07/17 09:03:39;;;;;;;5.75;2.40;;;33.30;37.30;;;;;;5053603;28;20044;-74
2022/07/17 09:06:05;;;;;;;4.70;2.60;;;33.30;36.50;;;;;;5053954;28;20028;-73
2022/07/17 09:08:32;;;;;;;5.20;2.50;;;33.30;36.70;;;;;;5053573;28;20021;-73
2022/07/17 09:10:58;;;;;;;3.63;2.40;;;33.20;36.30;;;;;;5054660;28;20611;-73
2022/07/17 09:13:28;;;;;;;8.40;2.95;;;33.20;36.30;;;;;;5053272;28;20095;-75
2022/07/17 09:16:07;;;;;;;8.63;2.80;;;33.30;36.20;;;;;;5054553;28;20013;-73
2022/07/17 09:18:42;;;;;;;7.47;3.25;;;33.40;37.10;;;;;;5054697;28;20115;-73
2022/07/17 09:21:17;;;;;;;7.63;3.10;;;33.40;36.70;;;;;;5054414;28;20446;-75
2022/07/17 09:23:43;;;;;;;4.43;2.88;;;33.40;36.50;;;;;;5054626;28;20128;-74
2022/07/17 09:26:09;;;;;;;6.85;3.05;;;33.50;36.50;;;;;;5052915;28;20079;-74
2022/07/17 09:28:45;;;;;;;7.70;2.92;;;33.50;36.20;;;;;;5054274;28;20541;-73
2022/07/17 09:31:11;;;;;;;7.53;2.90;;;33.50;35.90;;;;;;5054458;28;20099;-73
2022/07/17 09:33:37;;;;;;;9.50;3.75;;;33.50;35.80;;;;;;5054637;28;20471;-73
2022/07/17 09:36:12;;;;;;;5.55;3.17;;;33.50;36.10;;;;;;5054295;28;20024;-75
2022/07/17 09:38:40;;;;;;;7.90;2.90;;;33.60;36.20;;;;;;5054269;28;20036;-73
2022/07/17 09:41:11;;;;;;;9.60;3.30;;;33.70;36.20;;;;;;5054158;28;20087;-74
2022/07/17 09:43:47;;;;;;;7.78;3.10;;;33.70;37.00;;;;;;5054104;28;20037;-74
2022/07/17 09:46:24;;;;;;;5.25;2.60;;;33.70;35.90;;;;;;5053762;28;20029;-75
2022/07/17 09:48:55;;;;;;;6.85;2.78;;;33.80;35.30;;;;;;5053953;28;20036;-75
2022/07/17 09:51:37;;;;;;;12.10;3.10;;;33.80;35.30;;;;;;5053830;28;20105;-75
2022/07/17 09:54:05;;;;;;;5.57;3.17;;;33.80;35.40;;;;;;5054470;28;20036;-72
2022/07/17 09:56:34;;;;;;;5.13;3.15;;;33.90;35.30;;;;;;5052809;28;20523;-74
2022/07/17 09:59:02;;;;;;;6.78;3.13;;;33.90;34.60;;;;;;5054083;28;20040;-73
2022/07/17 10:01:28;;;;;;;9.05;2.80;;;33.90;34.30;;;;;;5054038;28;20032;-73
2022/07/17 10:03:55;;;;;;;4.20;2.70;;;33.80;33.90;;;;;;5053594;28;20518;-75
2022/07/17 10:06:22;;;;;;;7.10;3.42;;;33.90;33.90;;;;;;5053645;28;20112;-73
2022/07/17 10:08:48;;;;;;;4.97;3.20;;;33.90;33.70;;;;;;5053629;28;20035;-73
2022/07/17 10:11:19;;;;;;;6.60;3.28;;;34.00;33.60;;;;;;5054259;28;20029;-76
2022/07/17 10:13:46;;;;;;;6.85;3.35;;;34.00;33.50;;;;;;5053476;28;20382;-74
2022/07/17 10:16:13;;;;;;;7.95;3.25;;;34.10;33.30;;;;;;5053521;28;20492;-75
2022/07/17 10:18:44;;;;;;;8.23;3.00;;;34.10;32.80;;;;;;5053286;28;20104;-72
2022/07/17 10:21:19;;;;;;;5.55;3.10;;;34.10;33.00;;;;;;5053689;28;20029;-74
2022/07/17 10:23:50;;;;;;;5.78;3.53;;;34.10;33.40;;;;;;5053446;28;20032;-72
2022/07/17 10:26:16;;;;;;;6.47;3.35;;;34.20;33.20;;;;;;5053251;28;20029;-74
2022/07/17 10:28:45;;;;;;;8.32;3.80;;;34.30;33.40;;;;;;5053220;28;20028;-73
2022/07/17 10:31:32;;;;;;;6.93;3.55;;;34.30;33.50;;;;;;5052992;28;20036;-72
2022/07/17 10:34:05;;;;;;;7.28;3.45;;;34.40;33.50;;;;;;5035302;28;20456;-74
2022/07/17 10:36:34;;;;;;;7.97;3.55;;;34.40;34.00;;;;;;5053087;28;20033;-72
2022/07/17 10:39:13;;;;;;;5.15;3.70;;;34.50;33.60;;;;;;5053024;28;20118;-73
2022/07/17 10:41:42;;;;;;;9.70;3.20;;;34.50;33.60;;;;;;5052724;28;20346;-73
2022/07/17 10:44:08;;;;;;;7.70;3.90;;;34.60;33.30;;;;;;5052740;28;20051;-71
2022/07/17 10:46:35;;;;;;;5.68;3.10;;;34.60;33.10;;;;;;5053065;28;20104;-74
2022/07/17 10:49:04;;;;;;;6.90;3.13;;;34.80;33.30;;;;;;5052809;28;20428;-74
2022/07/17 10:51:31;;;;;;;4.78;3.35;;;34.80;33.20;;;;;;5053650;28;20021;-73
2022/07/17 10:54:01;;;;;;;4.88;3.03;;;34.90;33.10;;;;;;5052597;28;20047;-74
2022/07/17 10:56:27;;;;;;;5.75;3.50;;;35.00;32.80;;;;;;5052358;28;20055;-74
2022/07/17 10:59:00;;;;;;;7.72;3.45;;;35.10;32.30;;;;;;5052569;28;20519;-74
2022/07/17 11:01:26;;;;;;;5.25;3.00;;;35.20;32.40;;;;;;5051333;28;20029;-76
2022/07/17 11:03:54;;;;;;;7.53;3.13;;;35.20;32.50;;;;;;5052792;28;20025;-75
2022/07/17 11:06:24;;;;;;;9.13;3.35;;;35.30;33.20;;;;;;5052655;28;20052;-77
2022/07/17 11:08:51;;;;;;;8.20;4.10;;;35.30;34.80;;;;;;5052699;28;20056;-74
2022/07/17 11:11:19;;;;;;;8.95;3.88;;;35.40;34.90;;;;;;5052915;28;20029;-73
2022/07/17 11:13:45;;;;;;;5.90;3.53;;;35.50;35.00;;;;;;5052454;28;20371;-76
2022/07/17 11:16:11;;;;;;;14.75;5.50;;;35.50;35.40;;;;;;5052572;28;20212;-75
2022/07/17 11:18:37;;;;;;;11.60;4.93;;;35.50;35.40;;;;;;5052692;28;20561;-74
2022/07/17 11:21:04;;;;;;;12.55;4.97;;;35.60;35.50;;;;;;5052345;28;20381;-77
2022/07/17 11:23:32;;;;;;;11.77;7.53;;;35.70;35.50;;;;;;5052442;28;20438;-71
2022/07/17 11:26:02;;;;;;;11.57;8.60;;;35.70;35.60;;;;;;5052227;28;20162;-74
2022/07/17 11:28:35;;;;;;;12.43;10.60;;;35.70;36.10;;;;;;5052433;28;20126;-73
2022/07/17 11:31:02;;;;;;;;;;;35.80;36.10;;;;;;5056506;28;20021;-72
2022/07/17 11:33:27;;;;;;;16.70;14.65;;;35.80;35.60;;;;;;5056148;28;19924;-72
2022/07/17 11:35:56;;;;;;;19.13;14.63;;;35.80;35.50;;;;;;5056177;28;20013;-72
2022/07/17 11:38:29;;;;;;;18.10;15.65;;;35.80;35.60;;;;;;5056757;28;20444;-73
2022/07/17 11:40:55;;;;;;;;;;;35.80;35.40;;;;;;5056677;28;20469;-73
2022/07/17 11:43:21;;;;;;;18.48;15.80;;;35.80;35.10;;;;;;5056625;28;20338;-74
2022/07/17 11:45:47;;;;;;;22.30;15.02;;;35.80;35.20;;;;;;5056426;28;20033;-73
2022/07/17 11:48:13;;;;;;;17.08;14.00;;;35.80;35.20;;;;;;5056337;28;20110;-74
2022/07/17 11:50:39;;;;;;;18.02;14.95;;;35.90;35.30;;;;;;5056190;28;20068;-74
2022/07/17 11:53:06;;;;;;;19.27;15.30;;;35.90;35.00;;;;;;5056489;28;20060;-74
2022/07/17 11:55:39;;;;;;;18.55;15.63;;;35.90;34.80;;;;;;5056406;28;20041;-73
2022/07/17 11:58:05;;;;;;;18.40;16.48;;;35.90;34.80;;;;;;5056188;28;20029;-75
2022/07/17 12:00:31;;;;;;;19.85;16.30;;;35.90;34.80;;;;;;5055871;28;20544;-73
2022/07/17 12:03:01;;;;;;;21.15;16.33;;;35.90;34.90;;;;;;5055972;28;20052;-73
2022/07/17 12:05:29;;;;;;;14.90;13.32;;;36.00;35.00;;;;;;5055895;28;20144;-73
2022/07/17 12:07:55;;;;;;;15.02;10.35;;;36.00;34.90;;;;;;5055902;28;20103;-73
2022/07/17 12:10:23;;;;;;;12.65;11.35;;;36.10;35.10;;;;;;5055927;28;20033;-72
2022/07/17 12:12:56;;;;;;;14.10;12.10;;;36.10;35.10;;;;;;5055951;28;20033;-76
2022/07/17 12:15:33;;;;;;;;;;;36.20;35.40;;;;;;5056081;28;20032;-74
2022/07/17 12:17:59;;;;;;;19.63;17.73;;;36.20;34.90;;;;;;5055680;28;19904;-72
2022/07/17 12:20:25;;;;;;;27.08;20.02;;;36.20;35.10;;;;;;5055553;28;20032;-74
2022/07/17 12:22:51;;;;;;;28.73;26.08;;;36.20;35.00;;;;;;5055696;28;20091;-73
2022/07/17 12:25:25;;;;;;;33.35;30.27;;;36.20;35.00;;;;;;5055775;28;20190;-74
2022/07/17 12:27:50;;;;;;;24.52;21.92;;;36.20;35.40;;;;;;5055883;28;20037;-76
2022/07/17 12:30:16;;;;;;;24.23;21.73;;;36.20;35.20;;;;;;5054255;28;20044;-74
2022/07/17 12:32:42;;;;;;;24.27;21.55;;;36.20;35.30;;;;;;5055447;28;20082;-75
2022/07/17 12:35:09;;;;;;;19.45;17.33;;;36.30;35.50;;;;;;5055141;28;20485;-75
2022/07/17 12:37:34;;;;;;;25.98;22.17;;;36.30;35.40;;;;;;5055443;28;20037;-76
2022/07/17 12:40:00;;;;;;;24.20;21.65;;;36.30;35.40;;;;;;5055302;28;20354;-74
2022/07/17 12:42:26;;;;;;;23.45;20.65;;;36.40;35.60;;;;;;5053929;28;20021;-73
2022/07/17 12:44:52;;;;;;;24.35;21.02;;;36.40;35.60;;;;;;5055061;28;20374;-75
2022/07/17 12:47:17;;;;;;;18.77;16.77;;;36.40;35.70;;;;;;5055062;28;20466;-73